Aérodrome :
LOGIN :

S'inscrire | Disclaimer

   EN    FR    IT 

 










Légende :    VFR   VFR Marginal   IFR   IFR Intensif   IFR Très Intensif
Visi : 
Plafond : 
>= 8 km
>= 3000ft
5 à 8 km
1000 à 3000 ft
1500m à 5 km
500 à 1000 ft
800 à 1500m
200 à 500 ft
< 800m
< 200 ft
Symboles :   Orages  Brouillard  Fortes neiges  Fortes précipitations  Vent > 20 kt
SIGMETs :   Divers  Orages  Givrage  Turbulence  Onde Orograph.  Cendres Volcan.






- Altitude de l'aérodrome : 273 ft


EGXT - RAF Wittering Stamford

DERNIER METAR :
  • 091950Z AUTO 27007KT 9000 BR NCD M03/M04 Q1007

METARs EXPIRÉS :
  • 091920Z AUTO 27009KT 9999 NCD M01/M02 Q1007
  • 090450Z AUTO 31008KT 8000 BR FEW031/// M01/M02 Q1007
  • 091850Z AUTO 28007KT 9999 NCD M01/M02 Q1007
  • 091820Z AUTO 26010KT 9999 NCD M01/M02 Q1007
  • 091750Z AUTO 26008KT 8000 BR NCD M02/M03 Q1007
  • 091720Z AUTO 26007KT 9999 NCD M01/M03 Q1006

Prévision TAF périmée.



MET'MAP, la Météo Aéronautique d'un coup d'oeil ! - Copyright ORBIFLY Décembre 2007 - Disclaimer

ORBIFLY MET'MAP TEAM :

Programmation & Développement : Alexandra Zaïnal
Sur une idée originale de : Baudouin d'Aumeries
Soutien technique & logistique : Manuel Goepfert
Assistance : Marc-Olivier Méhu




SOURCES & CREDITS :

   NOAA